Relevés horaires Bouveret (Suisse)


Relevés horaires à Bouveret - Samedi 22 Août 2026
Heure UTC1 Température [°C] Vent [km/h] Hum. [%] Pres.4 [hPa] Visi. [Km] Nébu. [octa] Préc.5 [mm] Cond.
2m. Res. Ros. Dir.2 Vit. Moy. Raf.3
23:00 17.1 17.1 9.8 SSE 9.3 -- 14.8 62 1019.6(0.2/3h) -- -- -- --
22:00 17.7 17.7 9.6 SE 7.4 -- 11.1 59 1019.2(0.6/3h) -- -- -- --
21:00 19.3 19.3 9.0 SSE 5.6 -- 38.9 51 1019.1(1.2/3h) -- -- -- --
20:00 21.7 21.7 11.0 O 14.8 -- 29.6 51 1018.7(1.3/3h) -- -- -- --
19:00 22.4 22.4 10.9 N 27.8 -- 38.9 48 1017.8(0.8/3h) -- -- -- --
18:00 23.2 23.2 10.5 N 16.7 -- 27.8 45 1017.2(0.2/3h) -- -- -- --
17:00 23.5 23.5 7.4 O 14.8 -- 18.5 36 1017(-0.2/3h) -- -- -- --
16:00 23.3 23.3 7.7 O 13.0 -- 20.4 37 1016.9 -- -- -- --
15:00 23.1 23.1 7.8 O 14.8 -- 22.2 37 1017 -- -- -- --
14:00 22.8 22.8 6.5 ONO 18.5 -- 22.2 35 1017.4 -- -- -- --
13:00 22.4 22.4 6.3 O 16.7 -- 18.5 35 1017.6(-0.8/3h) -- -- -- --
12:00 21.5 21.5 6.4 O 13.0 -- 20.4 37 1017.9 -- -- -- --
11:00 20.3 20.3 11.6 ONO 14.8 -- 16.7 57 1018.8 -- -- -- --
10:00 19.3 19.3 13.1 ONO 7.4 -- 11.1 67 1019(0.8/3h) -- -- -- --
09:00 18.8 18.8 12.4 NO 5.6 -- 16.7 66 1018.9 -- -- -- --
08:00 18.2 18.2 11.6 NE 1.9 -- 11.1 65 1018.7 -- -- -- --
07:00 16.8 16.6 11.1 ESE 11.1 -- 16.7 69 1018.5 -- -- -- --
06:00 15.3 14.8 11.3 SE 11.1 -- 27.8 77 1018.6 -- -- -- --
05:00 14.1 13.6 12.4 SSE 9.3 -- 13.0 89 1018.4(0.8/3h) -- -- -- --
04:00 15.0 14.7 12.0 SE 9.3 -- 13.0 82 1018(0.8/3h) -- -- -- --
03:00 15.2 15.2 12.6 SE 7.4 -- 27.8 84 1017.6(0.7/3h) -- -- -- --
02:00 15.8 15.8 12.8 SE 3.7 -- 16.7 82 1017.3(0.6/3h) -- -- -- --
01:00 15.8 15.2 12.6 ESE 13.0 -- 27.8 81 1017(1.0/3h) -- -- -- --
00:00 16.0 15.9 12.6 SE 9.3 -- 66.7 80 1016.8(1.0/3h) -- -- -- --

1 Coordinated Universal Time. Actuellement il est 05:00 locale et 03:00 UTC.

2 Le vent souffle depuis la direction indiquée vers la direction oposée.

3 Les rafales max. sont disponible 40 min après l'heure du relevé.

4 Pour les stations d'altitude (plus de 600m) le géopotentiel du niveau le plus proche de la pression obligatoire est indiqué.

5 Les stations disposant d'un diffuseur peuvent indiquer "trace". Cela signifie que des précipitations ont touchés le sol mais que la quantité est inférieure à 0.1 mm.

Copyright

Les données affichées sur cette page sont la propriété exclusive de Météo Suisse.

Récapitulatif de la journée
Température [°C] Vent [km/h] Ensoleillement4 [h] Precipitations totale5 [mm] Pression [Hpa]
Min1 Max.2 Moy.3 Max. Min Max.
14.0 23.7 0 66.7 0 h 0 min 0 1016.8 1019.6

1 Température minimale relevée entre 18:00 UTC la veille et 18:00 UTC le jour donné.

2 Température maximale relevée entre 06:00 UTC le jour donné et 06:00 UTC le lendemain.

3 Vent moyen de la journée basé sur les relevés horaires.

4 Ensoleillement en heures relevé entre 06:00 UTC la veille et 06:00 UTC le jour donné.

5 Précipitations totales tombées entre 06:00 UTC la jour donné et 06:00 UTC le lendemain.

Graphiques horaires